Time;durP1;ratioP1;P1;durP2;ratioP2;P2;SDS_P1;SDS_P2;PMS_P1;PMS_P2;Temp;Humidity;BMP_temperature;BMP_pressure;BME280_temperature;BME280_humidity;BME280_pressure;Samples;Min_cycle;Max_cycle;Signal;HPM_P1;HPM_P2
2021/12/06 00:01:41;;;;;;;37.83;19.70;;;;;;;;;;5053977;28;20083;-42
2021/12/06 00:04:06;;;;;;;38.95;20.48;;;;;;;;;;5053436;28;20075;-41
2021/12/06 00:06:33;;;;;;;39.00;19.15;;;;;;;;;;5053784;28;20021;-41
2021/12/06 00:09:00;;;;;;;34.30;17.23;;;;;;;;;;5053702;28;20017;-45
2021/12/06 00:11:25;;;;;;;33.40;18.10;;;;;;;;;;5053682;28;20021;-42
2021/12/06 00:13:51;;;;;;;31.48;16.92;;;;;;;;;;5053575;28;20032;-41
2021/12/06 00:16:19;;;;;;;29.73;16.80;;;;;;;;;;5052436;28;20035;-42
2021/12/06 00:18:45;;;;;;;33.50;17.08;;;;;;;;;;5042881;28;20033;-45
2021/12/06 00:21:11;;;;;;;28.83;16.00;;;;;;;;;;5033771;28;20116;-43
2021/12/06 00:23:37;;;;;;;34.38;16.35;;;;;;;;;;5032042;28;20108;-41
2021/12/06 00:26:03;;;;;;;29.13;16.92;;;;;;;;;;5033647;28;20017;-41
2021/12/06 00:28:28;;;;;;;28.83;15.45;;;;;;;;;;5033868;28;20484;-41
2021/12/06 00:30:54;;;;;;;25.38;15.43;;;;;;;;;;5046062;28;20087;-41
2021/12/06 00:33:20;;;;;;;29.55;16.02;;;;;;;;;;5033337;28;20029;-41
2021/12/06 00:35:45;;;;;;;28.20;15.18;;;;;;;;;;5033298;28;20491;-41
2021/12/06 00:38:11;;;;;;;23.88;14.65;;;;;;;;;;5033311;28;20083;-42
2021/12/06 00:40:54;;;;;;;27.73;14.23;;;;;;;;;;5032388;28;20988;-40
2021/12/06 00:43:20;;;;;;;27.77;15.88;;;;;;;;;;5033059;28;20100;-42
2021/12/06 00:45:45;;;;;;;27.77;14.90;;;;;;;;;;5031808;28;20052;-41
2021/12/06 00:48:10;;;;;;;25.33;15.05;;;;;;;;;;5032951;28;20068;-43
2021/12/06 00:50:38;;;;;;;28.98;15.93;;;;;;;;;;5047836;28;20460;-41
2021/12/06 00:53:04;;;;;;;24.88;14.30;;;;;;;;;;5051051;28;20025;-41
2021/12/06 00:55:29;;;;;;;22.40;13.20;;;;;;;;;;5053067;28;20691;-42
2021/12/06 00:57:55;;;;;;;20.50;12.60;;;;;;;;;;5053133;28;20053;-42
2021/12/06 01:00:23;;;;;;;22.48;13.07;;;;;;;;;;5052892;28;20075;-41
2021/12/06 01:02:49;;;;;;;22.17;13.57;;;;;;;;;;5052852;28;20052;-41
2021/12/06 01:05:14;;;;;;;22.42;13.15;;;;;;;;;;5052670;28;20049;-43
2021/12/06 01:07:40;;;;;;;22.42;13.15;;;;;;;;;;5052505;28;20442;-41
2021/12/06 01:10:06;;;;;;;20.73;12.23;;;;;;;;;;5051515;28;20024;-41
2021/12/06 01:12:32;;;;;;;19.85;11.90;;;;;;;;;;5051253;28;20017;-42
2021/12/06 01:14:57;;;;;;;20.02;12.82;;;;;;;;;;5052710;28;20048;-41
2021/12/06 01:17:23;;;;;;;19.70;12.07;;;;;;;;;;5048026;28;20013;-41
2021/12/06 01:19:48;;;;;;;21.15;12.30;;;;;;;;;;5047753;28;20087;-41
2021/12/06 01:22:52;;;;;;;17.42;11.13;;;;;;;;;;5047525;28;20017;-41
2021/12/06 01:25:17;;;;;;;19.50;11.25;;;;;;;;;;5032118;28;20075;-41
2021/12/06 01:40:58;;;;;;;16.20;9.93;;;;;;;;;;5032100;28;20044;-41
2021/12/06 01:43:23;;;;;;;17.73;10.82;;;;;;;;;;5031915;28;20037;-42
2021/12/06 01:45:49;;;;;;;17.15;10.77;;;;;;;;;;5031001;28;20025;-42
2021/12/06 01:48:14;;;;;;;17.38;10.60;;;;;;;;;;5046534;28;20021;-42
2021/12/06 01:50:40;;;;;;;18.38;10.68;;;;;;;;;;5050938;28;20491;-42
2021/12/06 01:53:05;;;;;;;16.00;10.20;;;;;;;;;;5055849;28;20044;-41
2021/12/06 01:55:35;;;;;;;14.80;10.20;;;;;;;;;;5056285;28;20025;-43
2021/12/06 01:58:02;;;;;;;16.52;10.13;;;;;;;;;;5056138;28;20053;-42
2021/12/06 02:00:34;;;;;;;16.20;9.85;;;;;;;;;;5056260;28;20036;-42
2021/12/06 02:03:00;;;;;;;16.60;10.65;;;;;;;;;;5056250;28;20353;-42
2021/12/06 02:05:25;;;;;;;17.00;10.00;;;;;;;;;;5055948;28;20031;-42
2021/12/06 02:07:51;;;;;;;15.90;9.50;;;;;;;;;;5056222;28;20036;-45
2021/12/06 02:10:16;;;;;;;15.55;9.32;;;;;;;;;;5055658;28;20021;-42
2021/12/06 02:12:44;;;;;;;17.83;10.60;;;;;;;;;;5055824;28;20025;-44
2021/12/06 02:15:39;;;;;;;14.10;9.10;;;;;;;;;;5055853;28;20361;-44
2021/12/06 02:18:06;;;;;;;16.98;10.40;;;;;;;;;;5042071;28;20053;-44
2021/12/06 02:20:37;;;;;;;15.20;9.80;;;;;;;;;;5052804;28;20108;-42
2021/12/06 02:23:03;;;;;;;14.80;9.88;;;;;;;;;;5055442;28;20024;-41
2021/12/06 02:25:29;;;;;;;16.83;9.38;;;;;;;;;;5056170;28;20025;-41
2021/12/06 02:27:55;;;;;;;14.70;9.45;;;;;;;;;;5056113;28;20452;-41
2021/12/06 02:30:21;;;;;;;12.30;8.85;;;;;;;;;;5054821;28;20433;-42
2021/12/06 02:32:47;;;;;;;16.02;10.15;;;;;;;;;;5055372;28;20387;-43
2021/12/06 02:35:16;;;;;;;15.00;9.82;;;;;;;;;;5055490;28;20032;-42
2021/12/06 02:37:42;;;;;;;14.95;9.82;;;;;;;;;;5055377;28;20067;-42
2021/12/06 02:40:14;;;;;;;15.35;9.80;;;;;;;;;;5054167;28;20040;-43
2021/12/06 02:42:39;;;;;;;15.32;9.50;;;;;;;;;;5049793;28;20021;-42
2021/12/06 02:45:06;;;;;;;16.63;9.98;;;;;;;;;;5034824;28;20449;-41
2021/12/06 02:47:31;;;;;;;15.70;9.50;;;;;;;;;;5044111;28;20434;-42
2021/12/06 02:50:04;;;;;;;16.00;10.35;;;;;;;;;;5055468;28;20067;-42
2021/12/06 02:52:29;;;;;;;15.27;10.00;;;;;;;;;;5055054;28;20380;-44
2021/12/06 02:54:57;;;;;;;17.05;10.77;;;;;;;;;;5055010;28;20025;-41
2021/12/06 02:57:33;;;;;;;15.27;10.75;;;;;;;;;;5055194;28;20072;-42
2021/12/06 02:59:58;;;;;;;17.52;10.80;;;;;;;;;;5053806;28;20391;-41
2021/12/06 03:02:26;;;;;;;15.80;9.73;;;;;;;;;;5053411;28;20032;-41
2021/12/06 03:04:51;;;;;;;18.65;11.60;;;;;;;;;;5054566;28;20025;-41
2021/12/06 03:07:20;;;;;;;19.77;11.52;;;;;;;;;;5055208;28;20092;-42
2021/12/06 03:09:50;;;;;;;18.75;10.90;;;;;;;;;;5054793;28;20028;-42
2021/12/06 03:12:19;;;;;;;17.65;10.70;;;;;;;;;;5055024;28;20056;-42
2021/12/06 03:14:47;;;;;;;20.07;11.93;;;;;;;;;;5054495;28;20037;-42
2021/12/06 03:17:13;;;;;;;17.88;11.40;;;;;;;;;;5046238;28;20026;-41
2021/12/06 03:19:39;;;;;;;17.90;11.00;;;;;;;;;;5034737;28;20033;-41
2021/12/06 03:22:05;;;;;;;20.67;12.00;;;;;;;;;;5035015;28;20105;-43
2021/12/06 03:24:30;;;;;;;18.45;11.52;;;;;;;;;;5034539;28;20024;-41
2021/12/06 03:26:56;;;;;;;18.52;11.93;;;;;;;;;;5034858;28;20021;-42
2021/12/06 03:29:21;;;;;;;19.23;11.90;;;;;;;;;;5034939;28;20093;-42
2021/12/06 03:31:47;;;;;;;20.83;12.02;;;;;;;;;;5033283;28;20376;-41
2021/12/06 03:34:13;;;;;;;17.88;12.00;;;;;;;;;;5034139;28;20385;-42
2021/12/06 03:36:39;;;;;;;21.27;12.55;;;;;;;;;;5034828;28;20056;-41
2021/12/06 03:39:06;;;;;;;22.10;12.23;;;;;;;;;;5034645;28;20453;-43
2021/12/06 03:41:31;;;;;;;22.52;12.18;;;;;;;;;;5034426;28;20068;-41
2021/12/06 03:43:58;;;;;;;20.73;12.50;;;;;;;;;;5034042;28;20018;-41
2021/12/06 03:46:24;;;;;;;23.08;13.50;;;;;;;;;;5051753;28;20021;-42
2021/12/06 03:48:49;;;;;;;22.17;12.65;;;;;;;;;;5054149;28;20025;-41
2021/12/06 03:51:15;;;;;;;22.75;12.90;;;;;;;;;;5054341;28;20113;-41
2021/12/06 03:53:40;;;;;;;20.13;12.68;;;;;;;;;;5053891;28;20060;-41
2021/12/06 03:56:05;;;;;;;24.58;13.90;;;;;;;;;;5053669;28;20056;-42
2021/12/06 03:58:32;;;;;;;22.27;12.88;;;;;;;;;;5054144;28;20052;-41
2021/12/06 04:00:57;;;;;;;25.02;13.95;;;;;;;;;;5053748;28;20483;-43
2021/12/06 04:03:24;;;;;;;25.30;13.43;;;;;;;;;;5053512;28;20056;-43
2021/12/06 04:05:49;;;;;;;22.45;12.50;;;;;;;;;;5053886;28;20021;-41
2021/12/06 04:08:15;;;;;;;23.45;13.43;;;;;;;;;;5054052;28;20027;-42
2021/12/06 04:10:42;;;;;;;22.25;13.25;;;;;;;;;;5054018;28;20029;-42
2021/12/06 04:13:08;;;;;;;23.70;12.80;;;;;;;;;;5053420;28;20031;-41
2021/12/06 04:15:35;;;;;;;23.67;13.75;;;;;;;;;;5052915;28;20451;-41
2021/12/06 04:18:01;;;;;;;25.98;13.90;;;;;;;;;;5039494;28;20029;-41
2021/12/06 04:20:27;;;;;;;29.77;15.27;;;;;;;;;;5053625;28;20491;-42
2021/12/06 04:22:53;;;;;;;28.90;15.70;;;;;;;;;;5053314;28;20025;-41
2021/12/06 04:25:19;;;;;;;25.95;14.73;;;;;;;;;;5053687;28;20029;-41
2021/12/06 04:27:51;;;;;;;27.25;14.93;;;;;;;;;;5053368;28;20029;-43
2021/12/06 04:30:17;;;;;;;26.27;14.18;;;;;;;;;;5050722;28;20021;-42
2021/12/06 04:32:42;;;;;;;26.98;14.85;;;;;;;;;;5035510;28;20053;-42
2021/12/06 04:35:08;;;;;;;30.35;15.82;;;;;;;;;;5033655;28;20373;-41
2021/12/06 04:37:33;;;;;;;26.90;15.00;;;;;;;;;;5033527;28;20477;-42
2021/12/06 04:39:59;;;;;;;33.30;16.02;;;;;;;;;;5033343;28;20044;-43
2021/12/06 04:42:25;;;;;;;27.10;14.73;;;;;;;;;;5035314;28;20683;-41
2021/12/06 04:44:50;;;;;;;29.10;15.48;;;;;;;;;;5053112;28;20053;-41
2021/12/06 04:47:15;;;;;;;25.17;14.65;;;;;;;;;;5052741;28;20094;-44
2021/12/06 04:49:41;;;;;;;26.23;15.30;;;;;;;;;;5053411;28;20113;-41
2021/12/06 04:52:08;;;;;;;28.90;14.60;;;;;;;;;;5052916;28;20028;-45
2021/12/06 04:54:35;;;;;;;26.52;14.00;;;;;;;;;;5052835;28;20440;-43
2021/12/06 04:57:07;;;;;;;24.92;14.15;;;;;;;;;;5051291;28;20388;-43
2021/12/06 04:59:41;;;;;;;28.90;14.68;;;;;;;;;;5051523;28;20444;-45
2021/12/06 05:02:10;;;;;;;21.60;13.02;;;;;;;;;;5052849;28;20048;-42
2021/12/06 05:04:37;;;;;;;23.33;13.40;;;;;;;;;;5052628;28;20017;-43
2021/12/06 05:07:13;;;;;;;24.02;13.50;;;;;;;;;;5052643;28;20044;-44
2021/12/06 05:09:40;;;;;;;24.20;13.82;;;;;;;;;;5051321;28;20483;-42
2021/12/06 05:12:06;;;;;;;22.23;12.35;;;;;;;;;;5052551;28;20365;-43
2021/12/06 05:14:32;;;;;;;23.02;13.68;;;;;;;;;;5052536;28;20017;-42
2021/12/06 05:16:57;;;;;;;21.38;12.48;;;;;;;;;;5037478;28;20100;-41
2021/12/06 05:19:23;;;;;;;23.88;12.68;;;;;;;;;;5040607;28;20048;-41
2021/12/06 05:21:48;;;;;;;22.38;12.77;;;;;;;;;;5052448;28;20033;-45
2021/12/06 05:24:16;;;;;;;21.77;12.07;;;;;;;;;;5052319;28;20032;-41
2021/12/06 05:26:41;;;;;;;20.85;12.45;;;;;;;;;;5052233;28;20059;-42
2021/12/06 05:29:07;;;;;;;23.23;12.38;;;;;;;;;;5050829;28;20049;-44
2021/12/06 05:31:38;;;;;;;21.25;11.73;;;;;;;;;;5037673;28;20079;-41
2021/12/06 05:34:09;;;;;;;17.52;10.00;;;;;;;;;;5038985;28;20021;-43
2021/12/06 05:36:34;;;;;;;21.27;12.02;;;;;;;;;;5052421;28;20033;-44
2021/12/06 05:38:59;;;;;;;22.15;11.77;;;;;;;;;;5052419;28;20017;-41
2021/12/06 05:41:25;;;;;;;21.40;11.55;;;;;;;;;;5032780;28;20240;-43
2021/12/06 05:43:50;;;;;;;19.05;11.38;;;;;;;;;;5051125;28;20460;-42
2021/12/06 05:46:16;;;;;;;19.00;11.75;;;;;;;;;;5052255;28;20083;-42
2021/12/06 05:48:41;;;;;;;18.35;10.85;;;;;;;;;;5052479;28;20025;-41
2021/12/06 05:51:07;;;;;;;18.58;10.57;;;;;;;;;;5052643;28;20056;-42
2021/12/06 05:53:32;;;;;;;19.48;11.05;;;;;;;;;;5052093;28;20028;-41
2021/12/06 05:55:57;;;;;;;17.30;10.60;;;;;;;;;;5052129;28;20060;-43
2021/12/06 05:58:26;;;;;;;18.15;9.90;;;;;;;;;;5050415;28;20056;-42
2021/12/06 06:00:52;;;;;;;21.58;10.52;;;;;;;;;;5052400;28;20051;-43
2021/12/06 06:03:17;;;;;;;19.45;10.48;;;;;;;;;;5051783;28;20170;-42
2021/12/06 06:05:43;;;;;;;16.52;9.82;;;;;;;;;;5051892;28;20435;-43
2021/12/06 06:08:09;;;;;;;16.35;9.70;;;;;;;;;;5051828;28;20094;-45
2021/12/06 06:10:35;;;;;;;18.65;10.32;;;;;;;;;;5052064;28;20025;-41
2021/12/06 06:13:00;;;;;;;17.13;10.55;;;;;;;;;;5051320;28;20103;-43
2021/12/06 06:15:28;;;;;;;19.17;10.95;;;;;;;;;;5044868;28;20055;-43
2021/12/06 06:17:54;;;;;;;19.70;11.70;;;;;;;;;;5032166;28;20021;-42
2021/12/06 06:20:26;;;;;;;17.77;10.73;;;;;;;;;;5032051;28;20430;-42
2021/12/06 06:22:52;;;;;;;16.63;10.52;;;;;;;;;;5031748;28;20041;-42
2021/12/06 06:25:17;;;;;;;22.35;11.43;;;;;;;;;;5031944;28;20465;-43
2021/12/06 06:27:43;;;;;;;17.05;10.18;;;;;;;;;;5031650;28;20021;-45
2021/12/06 06:30:10;;;;;;;22.08;10.60;;;;;;;;;;5030755;28;20022;-44
2021/12/06 06:32:35;;;;;;;18.05;10.65;;;;;;;;;;5031256;28;20112;-43
2021/12/06 06:35:01;;;;;;;22.35;10.10;;;;;;;;;;5031633;28;20045;-44
2021/12/06 06:37:26;;;;;;;21.75;12.13;;;;;;;;;;5032975;28;20013;-45
2021/12/06 06:39:52;;;;;;;19.42;10.30;;;;;;;;;;5035355;28;20080;-43
2021/12/06 06:42:17;;;;;;;19.83;11.35;;;;;;;;;;5054895;28;20021;-44
2021/12/06 06:44:43;;;;;;;18.70;10.95;;;;;;;;;;5055260;28;20025;-43
2021/12/06 06:47:08;;;;;;;20.95;10.90;;;;;;;;;;5055401;28;20045;-42
2021/12/06 06:49:33;;;;;;;22.13;11.45;;;;;;;;;;5054193;28;20021;-43
2021/12/06 06:52:00;;;;;;;22.77;12.13;;;;;;;;;;5055250;28;20021;-43
2021/12/06 06:54:25;;;;;;;20.50;11.43;;;;;;;;;;5054981;28;20021;-45
2021/12/06 06:56:50;;;;;;;24.80;13.50;;;;;;;;;;5055040;28;20056;-43
2021/12/06 06:59:16;;;;;;;20.88;11.60;;;;;;;;;;5055200;28;20032;-45
2021/12/06 07:01:42;;;;;;;24.33;12.65;;;;;;;;;;5054680;28;20036;-42
2021/12/06 07:04:08;;;;;;;20.35;11.18;;;;;;;;;;5042784;28;20028;-44
2021/12/06 07:06:33;;;;;;;24.80;12.80;;;;;;;;;;5043209;28;20045;-43
2021/12/06 07:08:58;;;;;;;25.05;13.65;;;;;;;;;;5043674;28;20461;-44
2021/12/06 07:11:24;;;;;;;20.73;12.25;;;;;;;;;;5034311;28;20196;-42
2021/12/06 07:13:49;;;;;;;22.92;13.13;;;;;;;;;;5034127;28;20021;-45
2021/12/06 07:16:15;;;;;;;23.05;12.40;;;;;;;;;;5034421;28;20028;-45
2021/12/06 07:18:41;;;;;;;23.30;13.25;;;;;;;;;;5041952;28;20027;-45
2021/12/06 07:21:07;;;;;;;21.65;13.13;;;;;;;;;;5040101;28;20031;-45
2021/12/06 07:23:38;;;;;;;23.17;13.02;;;;;;;;;;5038177;28;20017;-42
2021/12/06 07:26:04;;;;;;;25.85;13.88;;;;;;;;;;5034443;28;20022;-44
2021/12/06 07:28:29;;;;;;;22.38;12.15;;;;;;;;;;5037823;28;20021;-43
2021/12/06 07:30:55;;;;;;;27.48;12.70;;;;;;;;;;5036410;28;20105;-45
2021/12/06 07:33:20;;;;;;;25.75;13.98;;;;;;;;;;5037360;28;20528;-43
2021/12/06 07:35:45;;;;;;;23.17;14.07;;;;;;;;;;5032712;28;20022;-44
2021/12/06 07:38:12;;;;;;;23.30;13.75;;;;;;;;;;5039734;28;20036;-47
2021/12/06 07:40:38;;;;;;;20.35;12.20;;;;;;;;;;5044357;28;20131;-44
2021/12/06 07:43:03;;;;;;;24.67;12.68;;;;;;;;;;5031990;28;20047;-46
2021/12/06 07:45:28;;;;;;;22.80;12.90;;;;;;;;;;5040268;28;20064;-44
2021/12/06 07:47:54;;;;;;;22.80;12.60;;;;;;;;;;5041054;28;20576;-44
2021/12/06 07:50:20;;;;;;;22.55;13.95;;;;;;;;;;5031015;28;20178;-45
2021/12/06 07:52:49;;;;;;;22.95;13.85;;;;;;;;;;5037750;28;20519;-45
2021/12/06 07:55:15;;;;;;;26.50;14.57;;;;;;;;;;5038283;28;20476;-47
2021/12/06 07:57:41;;;;;;;24.25;15.27;;;;;;;;;;5040812;28;20053;-45
2021/12/06 08:00:08;;;;;;;28.10;14.73;;;;;;;;;;5038199;28;20075;-43
2021/12/06 08:02:34;;;;;;;27.17;15.30;;;;;;;;;;5041856;28;20022;-42
2021/12/06 08:05:29;;;;;;;27.75;16.25;;;;;;;;;;5031008;28;20514;-43
2021/12/06 08:07:44;;;;;;;29.88;15.70;;;;;;;;;;5035122;28;20069;-41
2021/12/06 08:10:10;;;;;;;31.85;16.55;;;;;;;;;;5036082;28;20052;-38
2021/12/06 08:12:35;;;;;;;27.13;14.95;;;;;;;;;;5031796;28;20112;-42
2021/12/06 08:15:00;;;;;;;26.52;15.50;;;;;;;;;;5035797;28;20028;-40
2021/12/06 08:17:26;;;;;;;27.45;15.05;;;;;;;;;;5033663;28;20029;-38
2021/12/06 08:19:51;;;;;;;28.35;14.30;;;;;;;;;;5032006;28;20889;-37
2021/12/06 08:22:16;;;;;;;24.67;13.15;;;;;;;;;;5036415;28;20376;-41
2021/12/06 08:24:42;;;;;;;23.95;14.15;;;;;;;;;;5038644;28;20163;-39
2021/12/06 08:27:07;;;;;;;23.23;13.50;;;;;;;;;;5033128;28;20143;-41
2021/12/06 08:29:32;;;;;;;22.58;12.45;;;;;;;;;;5042149;28;20096;-42
2021/12/06 08:31:58;;;;;;;22.52;13.13;;;;;;;;;;5040991;28;20502;-46
2021/12/06 08:34:23;;;;;;;22.38;13.20;;;;;;;;;;5033950;28;20025;-41
2021/12/06 08:36:48;;;;;;;19.08;11.85;;;;;;;;;;5032551;28;20021;-41
2021/12/06 08:39:14;;;;;;;22.90;13.27;;;;;;;;;;5049667;28;20021;-41
2021/12/06 08:41:39;;;;;;;20.77;12.68;;;;;;;;;;5053290;28;20041;-42
2021/12/06 08:44:06;;;;;;;22.83;12.85;;;;;;;;;;5052542;28;20025;-41
2021/12/06 08:46:34;;;;;;;22.98;13.30;;;;;;;;;;5052927;28;20129;-43
2021/12/06 08:49:02;;;;;;;23.60;12.93;;;;;;;;;;5052780;28;20514;-41
2021/12/06 08:51:30;;;;;;;20.05;12.68;;;;;;;;;;5053011;28;20443;-42
2021/12/06 08:53:55;;;;;;;23.15;12.68;;;;;;;;;;5052320;28;20021;-41
2021/12/06 08:56:21;;;;;;;18.13;11.80;;;;;;;;;;5052689;28;20025;-42
2021/12/06 08:58:47;;;;;;;19.55;12.02;;;;;;;;;;5052355;28;20070;-42
2021/12/06 09:01:13;;;;;;;20.40;12.50;;;;;;;;;;5051011;28;20033;-41
2021/12/06 09:03:38;;;;;;;20.95;12.60;;;;;;;;;;5052461;28;20149;-42
2021/12/06 09:06:05;;;;;;;22.67;13.68;;;;;;;;;;5052671;28;20060;-43
2021/12/06 09:08:31;;;;;;;32.95;14.80;;;;;;;;;;5052195;28;20060;-45
2021/12/06 09:10:57;;;;;;;31.50;17.30;;;;;;;;;;5052836;28;20036;-41
2021/12/06 09:13:23;;;;;;;30.83;18.10;;;;;;;;;;5052039;28;20017;-42
2021/12/06 09:15:49;;;;;;;26.00;16.10;;;;;;;;;;5033175;28;20108;-41
2021/12/06 09:18:15;;;;;;;28.08;16.63;;;;;;;;;;5032568;28;20018;-41
2021/12/06 09:20:42;;;;;;;26.35;16.33;;;;;;;;;;5032489;28;20033;-41
2021/12/06 09:23:08;;;;;;;26.00;15.93;;;;;;;;;;5031027;28;20036;-42
2021/12/06 09:25:37;;;;;;;30.75;16.90;;;;;;;;;;5032448;28;20029;-41
2021/12/06 09:28:03;;;;;;;26.83;15.48;;;;;;;;;;5032210;28;20029;-41
2021/12/06 09:30:30;;;;;;;27.48;14.73;;;;;;;;;;5035601;28;20030;-41
2021/12/06 09:32:56;;;;;;;24.33;15.00;;;;;;;;;;5031528;28;20040;-41
2021/12/06 09:35:26;;;;;;;23.35;14.73;;;;;;;;;;5031932;28;20030;-42
2021/12/06 09:37:52;;;;;;;22.10;14.55;;;;;;;;;;5051145;28;20028;-41
2021/12/06 09:40:17;;;;;;;23.67;13.82;;;;;;;;;;5052305;28;20033;-41
2021/12/06 09:42:43;;;;;;;21.60;13.73;;;;;;;;;;5052224;28;20104;-43
2021/12/06 09:45:11;;;;;;;21.85;13.93;;;;;;;;;;5051919;28;20029;-44
2021/12/06 09:47:36;;;;;;;20.17;13.57;;;;;;;;;;5051548;28;20464;-41
2021/12/06 09:50:03;;;;;;;26.17;15.68;;;;;;;;;;5050541;28;20021;-44
2021/12/06 09:52:28;;;;;;;21.40;14.80;;;;;;;;;;5051077;28;20025;-45
2021/12/06 09:54:55;;;;;;;23.15;15.60;;;;;;;;;;5038618;28;20495;-41
2021/12/06 09:57:21;;;;;;;24.95;15.60;;;;;;;;;;5032477;28;20060;-41
2021/12/06 09:59:46;;;;;;;22.25;15.15;;;;;;;;;;5031716;28;20431;-42
2021/12/06 10:02:14;;;;;;;26.83;17.15;;;;;;;;;;5032036;28;20096;-43
2021/12/06 10:04:42;;;;;;;28.20;17.23;;;;;;;;;;5030531;28;20026;-44
2021/12/06 10:07:09;;;;;;;25.30;16.17;;;;;;;;;;5030743;28;20040;-41
2021/12/06 10:09:35;;;;;;;30.42;16.95;;;;;;;;;;5035853;28;20041;-44
2021/12/06 10:12:01;;;;;;;31.27;17.73;;;;;;;;;;5032291;28;20028;-45
2021/12/06 10:14:27;;;;;;;25.88;15.68;;;;;;;;;;5039192;28;20497;-47
2021/12/06 10:16:53;;;;;;;26.85;16.20;;;;;;;;;;5045353;28;20025;-39
2021/12/06 10:19:18;;;;;;;25.25;15.43;;;;;;;;;;5047692;28;20067;-41
2021/12/06 10:21:44;;;;;;;24.45;15.95;;;;;;;;;;5040149;28;20539;-46
2021/12/06 10:24:14;;;;;;;22.13;14.55;;;;;;;;;;5043343;28;20108;-42
2021/12/06 10:26:40;;;;;;;22.65;13.75;;;;;;;;;;5043229;28;20483;-43
2021/12/06 10:29:07;;;;;;;20.90;13.98;;;;;;;;;;5038726;28;20055;-43
2021/12/06 10:31:37;;;;;;;20.50;14.05;;;;;;;;;;5035691;28;20120;-43
2021/12/06 10:34:03;;;;;;;21.00;13.65;;;;;;;;;;5035437;28;20530;-43
2021/12/06 10:36:28;;;;;;;24.75;14.52;;;;;;;;;;5043272;28;20095;-43
2021/12/06 10:38:58;;;;;;;26.15;15.32;;;;;;;;;;5040058;28;20022;-48
2021/12/06 10:41:29;;;;;;;21.45;15.05;;;;;;;;;;5033105;28;20033;-46
2021/12/06 10:43:59;;;;;;;22.33;14.40;;;;;;;;;;5034269;28;20028;-46
2021/12/06 10:46:25;;;;;;;21.65;14.10;;;;;;;;;;5035412;28;20086;-44
2021/12/06 10:48:52;;;;;;;22.70;14.25;;;;;;;;;;5035190;28;20132;-42
2021/12/06 10:51:18;;;;;;;25.90;16.15;;;;;;;;;;5035597;28;20022;-43
2021/12/06 10:53:51;;;;;;;23.23;14.77;;;;;;;;;;5034815;28;20461;-43
2021/12/06 10:56:20;;;;;;;23.58;14.90;;;;;;;;;;5035092;28;20029;-43
2021/12/06 10:58:46;;;;;;;;;;;;;;;;;;5035417;28;20033;-44
2021/12/06 11:01:23;;;;;;;22.33;14.43;;;;;;;;;;5033523;28;20315;-45
2021/12/06 11:03:51;;;;;;;25.42;15.60;;;;;;;;;;5034750;28;20014;-43
2021/12/06 11:06:45;;;;;;;24.00;15.38;;;;;;;;;;5035245;28;20029;-42
2021/12/06 11:09:12;;;;;;;23.27;16.05;;;;;;;;;;5034663;28;20091;-42
2021/12/06 11:11:39;;;;;;;23.65;16.98;;;;;;;;;;5033839;28;20024;-41
2021/12/06 11:14:09;;;;;;;31.63;18.52;;;;;;;;;;5033460;28;20366;-44
2021/12/06 11:16:36;;;;;;;40.58;21.25;;;;;;;;;;5035064;28;20384;-43
2021/12/06 11:19:04;;;;;;;41.58;22.15;;;;;;;;;;5034867;28;20020;-44
2021/12/06 11:21:41;;;;;;;42.58;21.85;;;;;;;;;;5036241;28;20041;-43
2021/12/06 11:24:25;;;;;;;37.28;19.27;;;;;;;;;;5041249;28;20095;-42
2021/12/06 11:26:57;;;;;;;23.83;15.65;;;;;;;;;;5051189;28;20033;-46
2021/12/06 11:29:22;;;;;;;32.55;14.70;;;;;;;;;;5040554;28;20488;-46
2021/12/06 11:31:51;;;;;;;19.67;14.13;;;;;;;;;;5034919;28;20009;-42
2021/12/06 11:34:17;;;;;;;;;;;;;;;;;;5043222;28;20025;-43
2021/12/06 11:36:43;;;;;;;22.25;13.88;;;;;;;;;;5037302;28;20386;-42
2021/12/06 11:39:16;;;;;;;21.42;13.27;;;;;;;;;;5040569;28;20023;-47
2021/12/06 11:41:46;;;;;;;20.60;14.23;;;;;;;;;;5038749;28;20047;-43
2021/12/06 11:44:11;;;;;;;;;;;;;;;;;;5044134;28;20071;-46
2021/12/06 11:46:36;;;;;;;17.30;11.73;;;;;;;;;;5032755;28;20303;-45
2021/12/06 11:49:02;;;;;;;17.02;12.90;;;;;;;;;;5036206;28;20017;-44
2021/12/06 11:51:27;;;;;;;20.23;13.30;;;;;;;;;;5038485;28;20092;-43
2021/12/06 11:53:54;;;;;;;20.88;13.02;;;;;;;;;;5030358;28;20025;-44
2021/12/06 11:56:22;;;;;;;19.75;12.02;;;;;;;;;;5032998;28;20079;-44
2021/12/06 11:58:51;;;;;;;18.90;12.30;;;;;;;;;;5040367;28;20037;-43
2021/12/06 12:01:16;;;;;;;;;;;;;;;;;;5042396;28;20558;-44
2021/12/06 12:03:43;;;;;;;16.60;11.53;;;;;;;;;;5041195;28;19909;-43
2021/12/06 12:06:21;;;;;;;19.00;12.75;;;;;;;;;;5033778;28;20266;-44
2021/12/06 12:08:46;;;;;;;20.92;14.15;;;;;;;;;;5035318;28;20032;-42
2021/12/06 12:11:11;;;;;;;20.27;14.10;;;;;;;;;;5033663;28;20025;-42
2021/12/06 12:13:37;;;;;;;19.77;13.40;;;;;;;;;;5041474;28;20092;-45
2021/12/06 12:16:07;;;;;;;23.40;13.07;;;;;;;;;;5031513;28;20424;-41
2021/12/06 12:18:33;;;;;;;22.13;14.38;;;;;;;;;;5035778;28;20060;-47
2021/12/06 12:20:59;;;;;;;17.50;12.60;;;;;;;;;;5045805;28;20072;-44
2021/12/06 12:23:26;;;;;;;18.00;12.85;;;;;;;;;;5041114;28;20053;-42
2021/12/06 12:26:01;;;;;;;18.83;12.93;;;;;;;;;;5033412;28;20613;-43
2021/12/06 12:28:35;;;;;;;20.08;12.88;;;;;;;;;;5035728;28;20071;-42
2021/12/06 12:31:00;;;;;;;19.70;12.30;;;;;;;;;;5035927;28;20021;-42
2021/12/06 12:33:26;;;;;;;18.40;13.10;;;;;;;;;;5045405;28;20025;-41
2021/12/06 12:35:53;;;;;;;23.27;12.35;;;;;;;;;;5038014;28;20027;-42
2021/12/06 12:38:28;;;;;;;18.00;11.65;;;;;;;;;;5040269;28;20036;-44
2021/12/06 12:40:56;;;;;;;20.13;13.00;;;;;;;;;;5035130;28;20033;-43
2021/12/06 12:43:31;;;;;;;20.63;13.13;;;;;;;;;;5039769;28;20076;-43
2021/12/06 12:45:57;;;;;;;19.17;12.45;;;;;;;;;;5045792;28;20535;-44
2021/12/06 12:48:25;;;;;;;20.95;13.38;;;;;;;;;;5043527;28;20113;-44
2021/12/06 12:51:04;;;;;;;23.10;13.98;;;;;;;;;;5045016;28;20017;-42
2021/12/06 12:53:43;;;;;;;21.30;12.90;;;;;;;;;;5051107;28;20075;-43
2021/12/06 12:56:38;;;;;;;21.90;14.05;;;;;;;;;;5039805;28;20029;-43
2021/12/06 12:59:18;;;;;;;21.98;13.98;;;;;;;;;;5034486;28;20060;-43
2021/12/06 13:01:46;;;;;;;24.52;13.05;;;;;;;;;;5038462;28;20029;-48
2021/12/06 13:04:12;;;;;;;20.40;13.68;;;;;;;;;;5040610;28;20117;-43
2021/12/06 13:06:38;;;;;;;22.67;13.18;;;;;;;;;;5043101;28;20100;-43
2021/12/06 13:09:08;;;;;;;21.65;13.20;;;;;;;;;;5041410;28;20031;-42
2021/12/06 13:11:45;;;;;;;19.83;13.38;;;;;;;;;;5036551;28;20025;-43
2021/12/06 13:14:25;;;;;;;22.95;14.48;;;;;;;;;;5031190;28;20399;-48
2021/12/06 13:16:59;;;;;;;22.67;14.43;;;;;;;;;;5027780;28;20032;-43
2021/12/06 13:19:36;;;;;;;19.63;12.85;;;;;;;;;;5027528;28;20025;-42
2021/12/06 13:22:12;;;;;;;20.55;13.23;;;;;;;;;;5022710;28;20464;-42
2021/12/06 13:25:16;;;;;;;21.45;13.80;;;;;;;;;;5025633;28;20025;-44
2021/12/06 13:27:43;;;;;;;25.27;13.88;;;;;;;;;;4988166;28;20037;-44
2021/12/06 13:30:21;;;;;;;21.10;13.25;;;;;;;;;;4986829;28;20073;-42
2021/12/06 13:32:46;;;;;;;23.58;14.45;;;;;;;;;;5007462;28;20068;-48
2021/12/06 13:35:31;;;;;;;23.23;13.93;;;;;;;;;;5026460;28;20042;-44
2021/12/06 13:38:01;;;;;;;22.25;13.80;;;;;;;;;;5031007;28;20021;-43
2021/12/06 13:40:27;;;;;;;25.67;13.95;;;;;;;;;;5032024;28;20037;-46
2021/12/06 13:42:52;;;;;;;23.95;14.65;;;;;;;;;;5025285;28;20064;-48
2021/12/06 13:45:19;;;;;;;22.83;14.70;;;;;;;;;;5026924;28;20488;-43
2021/12/06 13:48:06;;;;;;;29.13;15.45;;;;;;;;;;5025376;28;20041;-46
2021/12/06 13:50:33;;;;;;;24.83;15.20;;;;;;;;;;5029312;28;20469;-42
2021/12/06 13:52:58;;;;;;;26.67;15.32;;;;;;;;;;5029363;28;20722;-45
2021/12/06 13:55:27;;;;;;;23.15;14.55;;;;;;;;;;5037012;28;20037;-44
2021/12/06 13:58:10;;;;;;;26.02;15.30;;;;;;;;;;5031995;28;20041;-44
2021/12/06 14:00:46;;;;;;;26.67;15.63;;;;;;;;;;5037727;28;20553;-45
2021/12/06 14:03:28;;;;;;;25.88;15.48;;;;;;;;;;5030748;28;20095;-44
2021/12/06 14:05:54;;;;;;;28.45;16.33;;;;;;;;;;5028753;28;20032;-44
2021/12/06 14:08:20;;;;;;;25.00;15.60;;;;;;;;;;5030261;28;20479;-42
2021/12/06 14:10:47;;;;;;;29.27;15.70;;;;;;;;;;5035137;28;20022;-42
2021/12/06 14:13:13;;;;;;;26.27;15.90;;;;;;;;;;5032309;28;20025;-47
2021/12/06 14:15:49;;;;;;;24.05;15.20;;;;;;;;;;5033093;28;20025;-44
2021/12/06 14:18:17;;;;;;;27.85;16.38;;;;;;;;;;5033118;28;20121;-42
2021/12/06 14:20:52;;;;;;;30.73;16.80;;;;;;;;;;5033824;28;20045;-45
2021/12/06 14:23:21;;;;;;;28.55;17.55;;;;;;;;;;5040591;28;20507;-42
2021/12/06 14:25:51;;;;;;;33.85;19.05;;;;;;;;;;5035219;28;20029;-45
2021/12/06 14:28:20;;;;;;;31.65;17.45;;;;;;;;;;5030462;28;20045;-43
2021/12/06 14:30:46;;;;;;;31.45;18.10;;;;;;;;;;5038581;28;20475;-44
2021/12/06 14:33:11;;;;;;;32.17;18.20;;;;;;;;;;5030820;28;20036;-42
2021/12/06 14:35:37;;;;;;;32.90;19.70;;;;;;;;;;5033460;28;20043;-44